sensor_id;sensor_type;location;lat;lon;timestamp;P1;durP1;ratioP1;P2;durP2;ratioP2
10432;SDS011;5263;48.680;9.004;2023-05-25T00:02:17;5.30;;;1.50;;
10432;SDS011;5263;48.680;9.004;2023-05-25T00:04:43;6.00;;;1.43;;
10432;SDS011;5263;48.680;9.004;2023-05-25T00:07:12;3.10;;;1.40;;
10432;SDS011;5263;48.680;9.004;2023-05-25T00:09:38;5.40;;;1.50;;
10432;SDS011;5263;48.680;9.004;2023-05-25T00:12:05;5.53;;;1.20;;
10432;SDS011;5263;48.680;9.004;2023-05-25T00:14:32;7.83;;;1.73;;
10432;SDS011;5263;48.680;9.004;2023-05-25T00:16:58;15.87;;;1.97;;
10432;SDS011;5263;48.680;9.004;2023-05-25T00:19:28;3.80;;;1.30;;
10432;SDS011;5263;48.680;9.004;2023-05-25T00:21:56;9.27;;;1.40;;
10432;SDS011;5263;48.680;9.004;2023-05-25T00:24:26;3.80;;;1.30;;
10432;SDS011;5263;48.680;9.004;2023-05-25T00:26:53;12.63;;;1.50;;
10432;SDS011;5263;48.680;9.004;2023-05-25T00:29:19;5.30;;;1.20;;
10432;SDS011;5263;48.680;9.004;2023-05-25T00:31:45;5.17;;;1.60;;
10432;SDS011;5263;48.680;9.004;2023-05-25T00:34:10;2.90;;;1.27;;
10432;SDS011;5263;48.680;9.004;2023-05-25T00:36:36;7.93;;;1.83;;
10432;SDS011;5263;48.680;9.004;2023-05-25T00:39:01;4.87;;;1.50;;
10432;SDS011;5263;48.680;9.004;2023-05-25T00:41:27;7.67;;;1.47;;
10432;SDS011;5263;48.680;9.004;2023-05-25T00:43:55;7.97;;;1.63;;
10432;SDS011;5263;48.680;9.004;2023-05-25T00:46:20;6.27;;;1.70;;
10432;SDS011;5263;48.680;9.004;2023-05-25T00:48:47;4.70;;;1.67;;
10432;SDS011;5263;48.680;9.004;2023-05-25T00:51:16;8.03;;;1.37;;
10432;SDS011;5263;48.680;9.004;2023-05-25T00:53:42;7.17;;;1.37;;
10432;SDS011;5263;48.680;9.004;2023-05-25T00:56:14;7.10;;;1.40;;
10432;SDS011;5263;48.680;9.004;2023-05-25T00:58:44;10.70;;;1.80;;
10432;SDS011;5263;48.680;9.004;2023-05-25T01:01:14;5.80;;;1.53;;
10432;SDS011;5263;48.680;9.004;2023-05-25T01:03:41;5.13;;;1.37;;
10432;SDS011;5263;48.680;9.004;2023-05-25T01:06:11;7.20;;;1.47;;
10432;SDS011;5263;48.680;9.004;2023-05-25T01:08:39;11.93;;;2.30;;
10432;SDS011;5263;48.680;9.004;2023-05-25T01:11:08;4.73;;;1.50;;
10432;SDS011;5263;48.680;9.004;2023-05-25T01:13:36;7.13;;;2.00;;
10432;SDS011;5263;48.680;9.004;2023-05-25T01:16:03;7.63;;;2.23;;
10432;SDS011;5263;48.680;9.004;2023-05-25T01:18:30;10.90;;;1.80;;
10432;SDS011;5263;48.680;9.004;2023-05-25T01:23:28;9.97;;;2.63;;
10432;SDS011;5263;48.680;9.004;2023-05-25T01:25:58;5.50;;;1.83;;
10432;SDS011;5263;48.680;9.004;2023-05-25T01:28:28;5.80;;;1.73;;
10432;SDS011;5263;48.680;9.004;2023-05-25T01:30:58;5.50;;;1.77;;
10432;SDS011;5263;48.680;9.004;2023-05-25T01:33:26;8.67;;;1.80;;
10432;SDS011;5263;48.680;9.004;2023-05-25T01:35:53;3.37;;;1.50;;
10432;SDS011;5263;48.680;9.004;2023-05-25T01:38:19;6.60;;;1.43;;
10432;SDS011;5263;48.680;9.004;2023-05-25T01:40:45;6.97;;;2.33;;
10432;SDS011;5263;48.680;9.004;2023-05-25T01:43:10;6.23;;;1.93;;
10432;SDS011;5263;48.680;9.004;2023-05-25T01:45:36;6.63;;;1.80;;
10432;SDS011;5263;48.680;9.004;2023-05-25T01:48:24;8.93;;;1.87;;
10432;SDS011;5263;48.680;9.004;2023-05-25T01:51:03;10.33;;;2.07;;
10432;SDS011;5263;48.680;9.004;2023-05-25T01:53:40;9.30;;;2.03;;
10432;SDS011;5263;48.680;9.004;2023-05-25T01:56:09;6.00;;;1.50;;
10432;SDS011;5263;48.680;9.004;2023-05-25T01:58:38;5.93;;;2.00;;
10432;SDS011;5263;48.680;9.004;2023-05-25T02:01:08;9.37;;;2.13;;
10432;SDS011;5263;48.680;9.004;2023-05-25T02:03:39;5.33;;;1.80;;
10432;SDS011;5263;48.680;9.004;2023-05-25T02:06:06;7.60;;;1.93;;
10432;SDS011;5263;48.680;9.004;2023-05-25T02:08:32;7.60;;;1.80;;
10432;SDS011;5263;48.680;9.004;2023-05-25T02:10:58;7.83;;;2.30;;
10432;SDS011;5263;48.680;9.004;2023-05-25T02:13:23;12.20;;;1.93;;
10432;SDS011;5263;48.680;9.004;2023-05-25T02:15:49;6.83;;;2.23;;
10432;SDS011;5263;48.680;9.004;2023-05-25T02:18:15;8.50;;;2.30;;
10432;SDS011;5263;48.680;9.004;2023-05-25T02:20:42;10.00;;;1.80;;
10432;SDS011;5263;48.680;9.004;2023-05-25T02:23:08;5.30;;;2.07;;
10432;SDS011;5263;48.680;9.004;2023-05-25T02:25:34;7.07;;;2.30;;
10432;SDS011;5263;48.680;9.004;2023-05-25T02:28:00;11.00;;;2.43;;
10432;SDS011;5263;48.680;9.004;2023-05-25T02:30:25;13.03;;;2.27;;
10432;SDS011;5263;48.680;9.004;2023-05-25T02:32:51;9.70;;;1.93;;
10432;SDS011;5263;48.680;9.004;2023-05-25T02:35:18;7.20;;;2.93;;
10432;SDS011;5263;48.680;9.004;2023-05-25T02:37:44;9.37;;;2.07;;
10432;SDS011;5263;48.680;9.004;2023-05-25T02:40:10;7.53;;;2.03;;
10432;SDS011;5263;48.680;9.004;2023-05-25T02:42:35;14.20;;;2.47;;
10432;SDS011;5263;48.680;9.004;2023-05-25T02:45:01;3.77;;;1.70;;
10432;SDS011;5263;48.680;9.004;2023-05-25T02:47:27;6.97;;;2.13;;
10432;SDS011;5263;48.680;9.004;2023-05-25T02:49:53;6.60;;;2.60;;
10432;SDS011;5263;48.680;9.004;2023-05-25T02:52:19;7.83;;;2.87;;
10432;SDS011;5263;48.680;9.004;2023-05-25T02:54:45;8.27;;;1.77;;
10432;SDS011;5263;48.680;9.004;2023-05-25T02:57:10;10.70;;;2.47;;
10432;SDS011;5263;48.680;9.004;2023-05-25T02:59:36;6.80;;;1.87;;
10432;SDS011;5263;48.680;9.004;2023-05-25T03:02:02;7.93;;;2.80;;
10432;SDS011;5263;48.680;9.004;2023-05-25T03:04:27;7.07;;;2.33;;
10432;SDS011;5263;48.680;9.004;2023-05-25T03:06:55;8.37;;;2.37;;
10432;SDS011;5263;48.680;9.004;2023-05-25T03:09:20;9.70;;;2.13;;
10432;SDS011;5263;48.680;9.004;2023-05-25T03:11:46;5.27;;;2.13;;
10432;SDS011;5263;48.680;9.004;2023-05-25T03:14:11;6.27;;;2.17;;
10432;SDS011;5263;48.680;9.004;2023-05-25T03:16:37;10.40;;;2.50;;
10432;SDS011;5263;48.680;9.004;2023-05-25T03:19:03;4.63;;;1.87;;
10432;SDS011;5263;48.680;9.004;2023-05-25T03:21:29;6.70;;;1.77;;
10432;SDS011;5263;48.680;9.004;2023-05-25T03:23:55;8.77;;;2.63;;
10432;SDS011;5263;48.680;9.004;2023-05-25T03:26:21;7.93;;;2.00;;
10432;SDS011;5263;48.680;9.004;2023-05-25T03:28:49;6.97;;;2.40;;
10432;SDS011;5263;48.680;9.004;2023-05-25T03:31:18;12.20;;;2.83;;
10432;SDS011;5263;48.680;9.004;2023-05-25T03:33:43;7.90;;;2.23;;
10432;SDS011;5263;48.680;9.004;2023-05-25T03:36:09;8.47;;;2.50;;
10432;SDS011;5263;48.680;9.004;2023-05-25T03:38:36;6.83;;;2.83;;
10432;SDS011;5263;48.680;9.004;2023-05-25T03:41:02;6.93;;;2.57;;
10432;SDS011;5263;48.680;9.004;2023-05-25T03:43:27;8.00;;;3.13;;
10432;SDS011;5263;48.680;9.004;2023-05-25T03:45:53;6.80;;;3.43;;
10432;SDS011;5263;48.680;9.004;2023-05-25T03:48:18;6.03;;;2.97;;
10432;SDS011;5263;48.680;9.004;2023-05-25T03:50:44;10.93;;;4.13;;
10432;SDS011;5263;48.680;9.004;2023-05-25T03:53:09;11.33;;;3.30;;
10432;SDS011;5263;48.680;9.004;2023-05-25T03:55:35;7.27;;;3.13;;
10432;SDS011;5263;48.680;9.004;2023-05-25T03:58:01;10.50;;;3.30;;
10432;SDS011;5263;48.680;9.004;2023-05-25T04:00:26;10.73;;;3.80;;
10432;SDS011;5263;48.680;9.004;2023-05-25T04:02:52;11.13;;;3.20;;
10432;SDS011;5263;48.680;9.004;2023-05-25T04:05:17;7.37;;;3.00;;
10432;SDS011;5263;48.680;9.004;2023-05-25T04:07:43;9.57;;;3.43;;
10432;SDS011;5263;48.680;9.004;2023-05-25T04:10:10;8.97;;;2.73;;
10432;SDS011;5263;48.680;9.004;2023-05-25T04:12:35;6.90;;;3.33;;
10432;SDS011;5263;48.680;9.004;2023-05-25T04:15:01;11.97;;;3.20;;
10432;SDS011;5263;48.680;9.004;2023-05-25T04:17:28;11.53;;;4.03;;
10432;SDS011;5263;48.680;9.004;2023-05-25T04:19:54;16.47;;;3.10;;
10432;SDS011;5263;48.680;9.004;2023-05-25T04:22:20;5.23;;;2.83;;
10432;SDS011;5263;48.680;9.004;2023-05-25T04:24:46;8.60;;;3.67;;
10432;SDS011;5263;48.680;9.004;2023-05-25T04:27:12;7.70;;;3.00;;
10432;SDS011;5263;48.680;9.004;2023-05-25T04:29:38;10.70;;;3.50;;
10432;SDS011;5263;48.680;9.004;2023-05-25T04:32:05;8.60;;;2.97;;
10432;SDS011;5263;48.680;9.004;2023-05-25T04:34:33;11.40;;;2.43;;
10432;SDS011;5263;48.680;9.004;2023-05-25T04:37:00;10.07;;;3.20;;
10432;SDS011;5263;48.680;9.004;2023-05-25T04:39:29;11.57;;;3.40;;
10432;SDS011;5263;48.680;9.004;2023-05-25T04:41:56;13.37;;;3.77;;
10432;SDS011;5263;48.680;9.004;2023-05-25T04:44:22;8.73;;;2.93;;
10432;SDS011;5263;48.680;9.004;2023-05-25T04:46:48;11.40;;;3.40;;
10432;SDS011;5263;48.680;9.004;2023-05-25T04:49:14;9.73;;;3.70;;
10432;SDS011;5263;48.680;9.004;2023-05-25T04:51:42;11.07;;;3.20;;
10432;SDS011;5263;48.680;9.004;2023-05-25T04:54:08;12.80;;;3.10;;
10432;SDS011;5263;48.680;9.004;2023-05-25T04:56:33;12.07;;;3.33;;
10432;SDS011;5263;48.680;9.004;2023-05-25T04:58:59;12.67;;;3.50;;
10432;SDS011;5263;48.680;9.004;2023-05-25T05:01:25;11.60;;;3.70;;
10432;SDS011;5263;48.680;9.004;2023-05-25T05:03:50;15.67;;;3.53;;
10432;SDS011;5263;48.680;9.004;2023-05-25T05:06:16;15.50;;;3.37;;
10432;SDS011;5263;48.680;9.004;2023-05-25T05:08:42;6.77;;;3.73;;
10432;SDS011;5263;48.680;9.004;2023-05-25T05:11:07;14.80;;;3.67;;
10432;SDS011;5263;48.680;9.004;2023-05-25T05:13:33;9.60;;;3.87;;
10432;SDS011;5263;48.680;9.004;2023-05-25T05:15:58;6.50;;;3.10;;
10432;SDS011;5263;48.680;9.004;2023-05-25T05:18:24;9.47;;;3.00;;
10432;SDS011;5263;48.680;9.004;2023-05-25T05:20:49;8.67;;;3.40;;
10432;SDS011;5263;48.680;9.004;2023-05-25T05:23:15;9.13;;;3.27;;
10432;SDS011;5263;48.680;9.004;2023-05-25T05:25:41;10.10;;;3.50;;
10432;SDS011;5263;48.680;9.004;2023-05-25T05:28:06;10.73;;;3.00;;
10432;SDS011;5263;48.680;9.004;2023-05-25T05:30:32;10.27;;;3.67;;
10432;SDS011;5263;48.680;9.004;2023-05-25T05:32:57;10.30;;;3.80;;
10432;SDS011;5263;48.680;9.004;2023-05-25T05:35:23;14.77;;;3.87;;
10432;SDS011;5263;48.680;9.004;2023-05-25T05:37:48;10.30;;;3.30;;
10432;SDS011;5263;48.680;9.004;2023-05-25T05:40:14;13.93;;;3.67;;
10432;SDS011;5263;48.680;9.004;2023-05-25T05:42:40;10.20;;;3.50;;
10432;SDS011;5263;48.680;9.004;2023-05-25T05:45:06;6.67;;;2.93;;
10432;SDS011;5263;48.680;9.004;2023-05-25T05:47:32;10.57;;;2.73;;
10432;SDS011;5263;48.680;9.004;2023-05-25T05:49:57;12.10;;;3.63;;
10432;SDS011;5263;48.680;9.004;2023-05-25T05:52:23;9.83;;;3.37;;
10432;SDS011;5263;48.680;9.004;2023-05-25T05:54:49;12.47;;;3.40;;
10432;SDS011;5263;48.680;9.004;2023-05-25T05:57:14;8.73;;;3.10;;
10432;SDS011;5263;48.680;9.004;2023-05-25T05:59:40;11.17;;;4.10;;
10432;SDS011;5263;48.680;9.004;2023-05-25T06:02:06;12.77;;;3.67;;
10432;SDS011;5263;48.680;9.004;2023-05-25T06:04:32;11.27;;;3.33;;
10432;SDS011;5263;48.680;9.004;2023-05-25T06:06:57;8.43;;;3.77;;
10432;SDS011;5263;48.680;9.004;2023-05-25T06:09:23;8.73;;;3.17;;
10432;SDS011;5263;48.680;9.004;2023-05-25T06:11:50;12.47;;;3.67;;
10432;SDS011;5263;48.680;9.004;2023-05-25T06:14:16;10.77;;;3.60;;
10432;SDS011;5263;48.680;9.004;2023-05-25T06:16:42;8.93;;;3.50;;
10432;SDS011;5263;48.680;9.004;2023-05-25T06:19:08;10.70;;;3.40;;
10432;SDS011;5263;48.680;9.004;2023-05-25T06:21:33;13.53;;;3.67;;
10432;SDS011;5263;48.680;9.004;2023-05-25T06:23:59;12.03;;;3.67;;
10432;SDS011;5263;48.680;9.004;2023-05-25T06:26:24;10.83;;;3.80;;
10432;SDS011;5263;48.680;9.004;2023-05-25T06:28:51;11.83;;;3.93;;
10432;SDS011;5263;48.680;9.004;2023-05-25T06:31:16;9.20;;;3.80;;
10432;SDS011;5263;48.680;9.004;2023-05-25T06:33:42;15.20;;;3.87;;
10432;SDS011;5263;48.680;9.004;2023-05-25T06:36:08;10.23;;;4.57;;
10432;SDS011;5263;48.680;9.004;2023-05-25T06:38:35;15.83;;;4.10;;
10432;SDS011;5263;48.680;9.004;2023-05-25T06:41:00;14.40;;;3.80;;
10432;SDS011;5263;48.680;9.004;2023-05-25T06:43:28;8.80;;;4.10;;
10432;SDS011;5263;48.680;9.004;2023-05-25T06:45:56;12.67;;;3.30;;
10432;SDS011;5263;48.680;9.004;2023-05-25T06:48:21;8.20;;;3.80;;
10432;SDS011;5263;48.680;9.004;2023-05-25T06:50:47;9.40;;;3.73;;
10432;SDS011;5263;48.680;9.004;2023-05-25T06:53:13;11.50;;;4.10;;
10432;SDS011;5263;48.680;9.004;2023-05-25T06:55:39;8.47;;;3.60;;
10432;SDS011;5263;48.680;9.004;2023-05-25T06:58:05;13.07;;;4.00;;
10432;SDS011;5263;48.680;9.004;2023-05-25T07:00:31;9.10;;;3.97;;
10432;SDS011;5263;48.680;9.004;2023-05-25T07:02:56;11.20;;;5.27;;
10432;SDS011;5263;48.680;9.004;2023-05-25T07:05:22;11.50;;;4.30;;
10432;SDS011;5263;48.680;9.004;2023-05-25T07:07:47;11.97;;;4.37;;
10432;SDS011;5263;48.680;9.004;2023-05-25T07:10:13;13.70;;;4.23;;
10432;SDS011;5263;48.680;9.004;2023-05-25T07:12:39;11.37;;;3.73;;
10432;SDS011;5263;48.680;9.004;2023-05-25T07:15:05;11.53;;;4.80;;
10432;SDS011;5263;48.680;9.004;2023-05-25T07:17:31;15.37;;;4.33;;
10432;SDS011;5263;48.680;9.004;2023-05-25T07:19:56;12.03;;;4.43;;
10432;SDS011;5263;48.680;9.004;2023-05-25T07:22:22;13.07;;;4.63;;
10432;SDS011;5263;48.680;9.004;2023-05-25T07:24:48;19.23;;;4.37;;
10432;SDS011;5263;48.680;9.004;2023-05-25T07:27:14;12.17;;;4.83;;
10432;SDS011;5263;48.680;9.004;2023-05-25T07:29:40;13.40;;;4.90;;
10432;SDS011;5263;48.680;9.004;2023-05-25T07:32:06;12.73;;;4.30;;
10432;SDS011;5263;48.680;9.004;2023-05-25T07:34:32;6.77;;;4.10;;
10432;SDS011;5263;48.680;9.004;2023-05-25T07:36:58;14.53;;;4.27;;
10432;SDS011;5263;48.680;9.004;2023-05-25T07:39:24;11.87;;;4.10;;
10432;SDS011;5263;48.680;9.004;2023-05-25T07:41:50;13.80;;;4.33;;
10432;SDS011;5263;48.680;9.004;2023-05-25T07:44:15;8.30;;;3.80;;
10432;SDS011;5263;48.680;9.004;2023-05-25T07:46:41;12.20;;;4.50;;
10432;SDS011;5263;48.680;9.004;2023-05-25T07:49:07;8.73;;;3.70;;
10432;SDS011;5263;48.680;9.004;2023-05-25T07:51:37;11.33;;;4.73;;
10432;SDS011;5263;48.680;9.004;2023-05-25T07:54:03;15.80;;;4.87;;
10432;SDS011;5263;48.680;9.004;2023-05-25T07:56:29;9.00;;;3.67;;
10432;SDS011;5263;48.680;9.004;2023-05-25T07:58:54;10.23;;;4.17;;
10432;SDS011;5263;48.680;9.004;2023-05-25T08:01:20;13.60;;;4.30;;
10432;SDS011;5263;48.680;9.004;2023-05-25T08:03:47;9.13;;;4.00;;
10432;SDS011;5263;48.680;9.004;2023-05-25T08:06:12;13.80;;;4.60;;
10432;SDS011;5263;48.680;9.004;2023-05-25T08:08:38;12.37;;;5.23;;
10432;SDS011;5263;48.680;9.004;2023-05-25T08:11:05;11.93;;;4.80;;
10432;SDS011;5263;48.680;9.004;2023-05-25T08:13:31;8.97;;;4.73;;
10432;SDS011;5263;48.680;9.004;2023-05-25T08:15:57;14.83;;;5.33;;
10432;SDS011;5263;48.680;9.004;2023-05-25T08:18:22;13.17;;;4.60;;
10432;SDS011;5263;48.680;9.004;2023-05-25T08:20:51;10.37;;;4.53;;
10432;SDS011;5263;48.680;9.004;2023-05-25T08:23:16;10.93;;;5.17;;
10432;SDS011;5263;48.680;9.004;2023-05-25T08:25:42;11.77;;;4.23;;
10432;SDS011;5263;48.680;9.004;2023-05-25T08:28:07;13.13;;;4.70;;
10432;SDS011;5263;48.680;9.004;2023-05-25T08:30:33;7.17;;;3.93;;
10432;SDS011;5263;48.680;9.004;2023-05-25T08:32:59;10.33;;;4.60;;
10432;SDS011;5263;48.680;9.004;2023-05-25T08:35:24;10.77;;;4.37;;
10432;SDS011;5263;48.680;9.004;2023-05-25T08:37:50;11.70;;;5.00;;
10432;SDS011;5263;48.680;9.004;2023-05-25T08:40:16;14.50;;;5.07;;
10432;SDS011;5263;48.680;9.004;2023-05-25T08:42:44;11.23;;;4.53;;
10432;SDS011;5263;48.680;9.004;2023-05-25T08:45:10;11.87;;;5.53;;
10432;SDS011;5263;48.680;9.004;2023-05-25T08:47:42;12.67;;;5.77;;
10432;SDS011;5263;48.680;9.004;2023-05-25T08:50:09;12.40;;;5.30;;
10432;SDS011;5263;48.680;9.004;2023-05-25T08:52:39;8.07;;;4.33;;
10432;SDS011;5263;48.680;9.004;2023-05-25T08:55:09;7.17;;;5.00;;
10432;SDS011;5263;48.680;9.004;2023-05-25T09:00:24;15.83;;;5.13;;
10432;SDS011;5263;48.680;9.004;2023-05-25T09:05:26;8.87;;;4.93;;
10432;SDS011;5263;48.680;9.004;2023-05-25T09:07:52;7.87;;;5.57;;
10432;SDS011;5263;48.680;9.004;2023-05-25T09:10:21;7.90;;;3.90;;
10432;SDS011;5263;48.680;9.004;2023-05-25T09:12:48;11.77;;;5.43;;
10432;SDS011;5263;48.680;9.004;2023-05-25T09:15:15;15.20;;;5.23;;
10432;SDS011;5263;48.680;9.004;2023-05-25T09:17:41;11.40;;;5.10;;
10432;SDS011;5263;48.680;9.004;2023-05-25T09:20:07;9.40;;;4.57;;
10432;SDS011;5263;48.680;9.004;2023-05-25T09:22:37;11.30;;;5.20;;
10432;SDS011;5263;48.680;9.004;2023-05-25T09:25:07;9.37;;;4.87;;
10432;SDS011;5263;48.680;9.004;2023-05-25T09:27:35;11.60;;;4.80;;
10432;SDS011;5263;48.680;9.004;2023-05-25T09:30:02;9.90;;;4.57;;
10432;SDS011;5263;48.680;9.004;2023-05-25T09:32:29;7.70;;;4.43;;
10432;SDS011;5263;48.680;9.004;2023-05-25T09:34:55;9.67;;;4.37;;
10432;SDS011;5263;48.680;9.004;2023-05-25T09:37:30;11.60;;;4.77;;
10432;SDS011;5263;48.680;9.004;2023-05-25T09:39:56;9.77;;;3.87;;
10432;SDS011;5263;48.680;9.004;2023-05-25T09:42:22;10.13;;;4.27;;
10432;SDS011;5263;48.680;9.004;2023-05-25T09:44:47;9.93;;;4.70;;
10432;SDS011;5263;48.680;9.004;2023-05-25T09:47:13;9.50;;;5.03;;
10432;SDS011;5263;48.680;9.004;2023-05-25T09:49:40;9.73;;;4.90;;
10432;SDS011;5263;48.680;9.004;2023-05-25T09:52:08;9.77;;;4.87;;
10432;SDS011;5263;48.680;9.004;2023-05-25T09:54:35;10.73;;;4.73;;
10432;SDS011;5263;48.680;9.004;2023-05-25T09:57:03;9.13;;;5.07;;
10432;SDS011;5263;48.680;9.004;2023-05-25T09:59:30;10.47;;;4.87;;
10432;SDS011;5263;48.680;9.004;2023-05-25T10:01:56;11.10;;;5.27;;
10432;SDS011;5263;48.680;9.004;2023-05-25T10:04:23;9.77;;;4.57;;
10432;SDS011;5263;48.680;9.004;2023-05-25T10:06:48;13.43;;;4.70;;
10432;SDS011;5263;48.680;9.004;2023-05-25T10:09:17;8.17;;;5.10;;
10432;SDS011;5263;48.680;9.004;2023-05-25T10:11:44;8.80;;;4.70;;
10432;SDS011;5263;48.680;9.004;2023-05-25T10:14:11;11.00;;;5.93;;
10432;SDS011;5263;48.680;9.004;2023-05-25T10:16:39;8.60;;;4.97;;
10432;SDS011;5263;48.680;9.004;2023-05-25T10:19:11;10.00;;;4.70;;
10432;SDS011;5263;48.680;9.004;2023-05-25T10:22:02;8.93;;;4.30;;
10432;SDS011;5263;48.680;9.004;2023-05-25T10:27:13;8.83;;;5.70;;
10432;SDS011;5263;48.680;9.004;2023-05-25T10:29:44;9.33;;;5.10;;
10432;SDS011;5263;48.680;9.004;2023-05-25T10:32:12;6.50;;;4.47;;
10432;SDS011;5263;48.680;9.004;2023-05-25T10:34:39;11.33;;;4.87;;
10432;SDS011;5263;48.680;9.004;2023-05-25T10:37:05;6.50;;;4.20;;
10432;SDS011;5263;48.680;9.004;2023-05-25T10:39:32;7.37;;;3.73;;
10432;SDS011;5263;48.680;9.004;2023-05-25T10:42:00;6.40;;;4.57;;
10432;SDS011;5263;48.680;9.004;2023-05-25T10:44:27;8.07;;;4.43;;
10432;SDS011;5263;48.680;9.004;2023-05-25T10:46:54;13.30;;;4.67;;
10432;SDS011;5263;48.680;9.004;2023-05-25T10:49:32;9.00;;;4.07;;
10432;SDS011;5263;48.680;9.004;2023-05-25T10:52:15;9.93;;;3.33;;
10432;SDS011;5263;48.680;9.004;2023-05-25T10:54:45;5.80;;;4.27;;
10432;SDS011;5263;48.680;9.004;2023-05-25T10:57:19;10.07;;;3.50;;
10432;SDS011;5263;48.680;9.004;2023-05-25T10:59:49;6.87;;;3.83;;
10432;SDS011;5263;48.680;9.004;2023-05-25T11:02:18;8.07;;;3.97;;
10432;SDS011;5263;48.680;9.004;2023-05-25T11:04:47;7.73;;;4.30;;
10432;SDS011;5263;48.680;9.004;2023-05-25T11:07:14;6.77;;;4.10;;
10432;SDS011;5263;48.680;9.004;2023-05-25T11:09:43;8.50;;;4.83;;
10432;SDS011;5263;48.680;9.004;2023-05-25T11:12:20;8.93;;;4.10;;
10432;SDS011;5263;48.680;9.004;2023-05-25T11:17:56;9.53;;;3.77;;
10432;SDS011;5263;48.680;9.004;2023-05-25T11:20:27;8.47;;;3.37;;
10432;SDS011;5263;48.680;9.004;2023-05-25T11:22:54;7.70;;;3.77;;
10432;SDS011;5263;48.680;9.004;2023-05-25T11:28:03;6.27;;;4.13;;
10432;SDS011;5263;48.680;9.004;2023-05-25T11:30:30;10.47;;;4.17;;
10432;SDS011;5263;48.680;9.004;2023-05-25T11:32:59;7.20;;;4.30;;
10432;SDS011;5263;48.680;9.004;2023-05-25T11:35:26;9.30;;;4.67;;
10432;SDS011;5263;48.680;9.004;2023-05-25T11:37:52;8.30;;;3.60;;
10432;SDS011;5263;48.680;9.004;2023-05-25T11:40:21;10.07;;;3.93;;
10432;SDS011;5263;48.680;9.004;2023-05-25T11:42:47;11.57;;;4.13;;
10432;SDS011;5263;48.680;9.004;2023-05-25T11:45:15;10.17;;;3.53;;
10432;SDS011;5263;48.680;9.004;2023-05-25T11:47:41;5.70;;;3.80;;
10432;SDS011;5263;48.680;9.004;2023-05-25T11:50:13;5.37;;;3.63;;
10432;SDS011;5263;48.680;9.004;2023-05-25T11:52:40;4.80;;;2.43;;
10432;SDS011;5263;48.680;9.004;2023-05-25T11:55:12;7.83;;;3.57;;
10432;SDS011;5263;48.680;9.004;2023-05-25T11:57:38;5.63;;;3.50;;
10432;SDS011;5263;48.680;9.004;2023-05-25T12:00:05;6.10;;;3.67;;
10432;SDS011;5263;48.680;9.004;2023-05-25T12:02:38;11.67;;;3.60;;
10432;SDS011;5263;48.680;9.004;2023-05-25T12:05:05;6.53;;;3.73;;
10432;SDS011;5263;48.680;9.004;2023-05-25T12:07:31;7.50;;;3.37;;
10432;SDS011;5263;48.680;9.004;2023-05-25T12:12:36;9.27;;;4.10;;
10432;SDS011;5263;48.680;9.004;2023-05-25T12:15:03;5.10;;;3.40;;
10432;SDS011;5263;48.680;9.004;2023-05-25T12:17:32;5.37;;;3.53;;
10432;SDS011;5263;48.680;9.004;2023-05-25T12:19:58;5.60;;;3.47;;
10432;SDS011;5263;48.680;9.004;2023-05-25T12:22:24;6.87;;;2.97;;
10432;SDS011;5263;48.680;9.004;2023-05-25T12:24:49;5.63;;;3.13;;
10432;SDS011;5263;48.680;9.004;2023-05-25T12:27:18;12.33;;;3.80;;
10432;SDS011;5263;48.680;9.004;2023-05-25T12:29:46;5.97;;;3.80;;
10432;SDS011;5263;48.680;9.004;2023-05-25T12:32:12;9.53;;;3.33;;
10432;SDS011;5263;48.680;9.004;2023-05-25T12:34:37;6.73;;;3.50;;
10432;SDS011;5263;48.680;9.004;2023-05-25T12:37:03;5.93;;;3.67;;
10432;SDS011;5263;48.680;9.004;2023-05-25T12:41:55;9.53;;;3.23;;
10432;SDS011;5263;48.680;9.004;2023-05-25T12:46:52;11.53;;;4.00;;
10432;SDS011;5263;48.680;9.004;2023-05-25T12:51:52;6.87;;;3.77;;
10432;SDS011;5263;48.680;9.004;2023-05-25T12:54:37;16.23;;;4.23;;
10432;SDS011;5263;48.680;9.004;2023-05-25T12:57:08;5.23;;;3.53;;
10432;SDS011;5263;48.680;9.004;2023-05-25T12:59:36;6.47;;;3.93;;
10432;SDS011;5263;48.680;9.004;2023-05-25T13:02:06;12.03;;;3.50;;
10432;SDS011;5263;48.680;9.004;2023-05-25T13:04:33;5.23;;;3.07;;
10432;SDS011;5263;48.680;9.004;2023-05-25T13:06:59;6.83;;;3.13;;
10432;SDS011;5263;48.680;9.004;2023-05-25T13:09:26;8.37;;;3.23;;
10432;SDS011;5263;48.680;9.004;2023-05-25T13:11:52;6.83;;;3.37;;
10432;SDS011;5263;48.680;9.004;2023-05-25T13:14:19;9.73;;;3.80;;
10432;SDS011;5263;48.680;9.004;2023-05-25T13:16:46;4.43;;;2.90;;
10432;SDS011;5263;48.680;9.004;2023-05-25T13:19:12;7.70;;;3.53;;
10432;SDS011;5263;48.680;9.004;2023-05-25T13:21:38;11.03;;;4.00;;
10432;SDS011;5263;48.680;9.004;2023-05-25T13:24:04;10.63;;;4.03;;
10432;SDS011;5263;48.680;9.004;2023-05-25T13:26:29;6.77;;;3.60;;
10432;SDS011;5263;48.680;9.004;2023-05-25T13:28:55;6.40;;;3.03;;
10432;SDS011;5263;48.680;9.004;2023-05-25T13:31:20;10.10;;;2.90;;
10432;SDS011;5263;48.680;9.004;2023-05-25T13:33:46;7.40;;;3.47;;
10432;SDS011;5263;48.680;9.004;2023-05-25T13:36:12;7.03;;;3.20;;
10432;SDS011;5263;48.680;9.004;2023-05-25T13:38:39;15.63;;;5.17;;
10432;SDS011;5263;48.680;9.004;2023-05-25T13:41:05;6.73;;;3.30;;
10432;SDS011;5263;48.680;9.004;2023-05-25T13:43:30;7.93;;;3.50;;
10432;SDS011;5263;48.680;9.004;2023-05-25T13:46:02;6.20;;;3.20;;
10432;SDS011;5263;48.680;9.004;2023-05-25T13:48:28;4.67;;;3.13;;
10432;SDS011;5263;48.680;9.004;2023-05-25T13:50:54;8.20;;;3.37;;
10432;SDS011;5263;48.680;9.004;2023-05-25T13:53:19;10.27;;;3.83;;
10432;SDS011;5263;48.680;9.004;2023-05-25T13:55:45;8.30;;;3.87;;
10432;SDS011;5263;48.680;9.004;2023-05-25T13:58:11;6.73;;;3.60;;
10432;SDS011;5263;48.680;9.004;2023-05-25T14:00:37;5.47;;;3.27;;
10432;SDS011;5263;48.680;9.004;2023-05-25T14:03:02;9.13;;;3.00;;
10432;SDS011;5263;48.680;9.004;2023-05-25T14:05:28;6.33;;;3.43;;
10432;SDS011;5263;48.680;9.004;2023-05-25T14:07:54;5.90;;;2.93;;
10432;SDS011;5263;48.680;9.004;2023-05-25T14:10:20;5.38;;;3.20;;
10432;SDS011;5263;48.680;9.004;2023-05-25T14:12:46;7.13;;;3.60;;
10432;SDS011;5263;48.680;9.004;2023-05-25T14:15:11;8.97;;;3.20;;
10432;SDS011;5263;48.680;9.004;2023-05-25T14:17:37;8.63;;;3.70;;
10432;SDS011;5263;48.680;9.004;2023-05-25T14:20:03;10.40;;;3.83;;
10432;SDS011;5263;48.680;9.004;2023-05-25T14:22:30;7.70;;;3.57;;
10432;SDS011;5263;48.680;9.004;2023-05-25T14:24:55;7.80;;;3.63;;
10432;SDS011;5263;48.680;9.004;2023-05-25T14:27:21;6.85;;;3.90;;
10432;SDS011;5263;48.680;9.004;2023-05-25T14:29:47;7.10;;;3.50;;
10432;SDS011;5263;48.680;9.004;2023-05-25T14:32:14;5.82;;;3.10;;
10432;SDS011;5263;48.680;9.004;2023-05-25T14:34:41;4.20;;;2.83;;
10432;SDS011;5263;48.680;9.004;2023-05-25T14:37:07;10.67;;;4.33;;
10432;SDS011;5263;48.680;9.004;2023-05-25T14:39:32;10.60;;;3.23;;
10432;SDS011;5263;48.680;9.004;2023-05-25T14:42:00;7.20;;;3.43;;
10432;SDS011;5263;48.680;9.004;2023-05-25T14:44:26;4.77;;;3.13;;
10432;SDS011;5263;48.680;9.004;2023-05-25T14:46:52;11.13;;;3.83;;
10432;SDS011;5263;48.680;9.004;2023-05-25T14:49:18;7.93;;;3.50;;
10432;SDS011;5263;48.680;9.004;2023-05-25T14:51:45;4.90;;;2.80;;
10432;SDS011;5263;48.680;9.004;2023-05-25T14:54:10;6.23;;;3.13;;
10432;SDS011;5263;48.680;9.004;2023-05-25T14:56:37;5.40;;;3.43;;
10432;SDS011;5263;48.680;9.004;2023-05-25T14:59:03;6.83;;;3.03;;
10432;SDS011;5263;48.680;9.004;2023-05-25T15:01:28;7.00;;;3.23;;
10432;SDS011;5263;48.680;9.004;2023-05-25T15:03:54;5.23;;;3.30;;
10432;SDS011;5263;48.680;9.004;2023-05-25T15:06:19;6.63;;;3.40;;
10432;SDS011;5263;48.680;9.004;2023-05-25T15:08:45;7.97;;;3.20;;
10432;SDS011;5263;48.680;9.004;2023-05-25T15:11:11;9.77;;;3.40;;
10432;SDS011;5263;48.680;9.004;2023-05-25T15:13:36;6.20;;;2.83;;
10432;SDS011;5263;48.680;9.004;2023-05-25T15:16:04;6.00;;;3.17;;
10432;SDS011;5263;48.680;9.004;2023-05-25T15:18:30;10.10;;;3.07;;
10432;SDS011;5263;48.680;9.004;2023-05-25T15:20:55;7.83;;;3.33;;